Time;durP1;ratioP1;P1;durP2;ratioP2;P2;SDS_P1;SDS_P2;PMS_P1;PMS_P2;Temp;Humidity;BMP_temperature;BMP_pressure;BME280_temperature;BME280_humidity;BME280_pressure;Samples;Min_cycle;Max_cycle;Signal;HPM_P1;HPM_P2
2023/04/25 00:09:53;;;;;;;6.33;2.93;;;;;;;14.62;100.00;99785.22;31327070;28;20049;-83
2023/04/25 00:24:57;;;;;;;9.80;2.70;;;;;;;14.83;100.00;99782.81;31317310;28;20397;-82
2023/04/25 00:39:58;;;;;;;4.33;2.93;;;;;;;14.89;100.00;99783.69;31360579;28;20110;-84
2023/04/25 00:55:01;;;;;;;4.30;2.80;;;;;;;14.94;100.00;99772.16;31349505;28;20470;-83
2023/04/25 01:10:04;;;;;;;3.67;2.93;;;;;;;14.78;100.00;99745.16;31337080;28;20038;-84
2023/04/25 01:25:07;;;;;;;8.70;3.40;;;;;;;14.51;100.00;99746.66;31347979;28;20052;-84
2023/04/25 01:40:11;;;;;;;5.30;3.50;;;;;;;14.40;100.00;99735.38;31324521;28;20059;-85
2023/04/25 01:55:12;;;;;;;5.90;3.67;;;;;;;14.37;100.00;99736.28;31347685;28;20063;-83
2023/04/25 02:10:14;;;;;;;6.40;2.83;;;;;;;14.12;100.00;99729.09;31381543;28;20459;-84
2023/04/25 02:25:19;;;;;;;8.23;3.70;;;;;;;13.98;100.00;99719.50;31367558;28;20161;-84
2023/04/25 02:40:22;;;;;;;5.40;3.97;;;;;;;13.91;100.00;99714.34;31320381;28;20088;-84
2023/04/25 02:55:23;;;;;;;7.63;3.93;;;;;;;13.99;100.00;99714.81;31312312;28;20054;-83
2023/04/25 03:10:28;;;;;;;9.43;3.20;;;;;;;14.17;100.00;99716.84;31300770;28;20096;-84
2023/04/25 03:25:31;;;;;;;9.43;3.93;;;;;;;14.05;100.00;99709.53;31302274;28;20060;-82
2023/04/25 03:40:33;;;;;;;6.73;3.37;;;;;;;14.20;100.00;99713.94;31320223;28;20049;-85
2023/04/25 03:55:35;;;;;;;9.53;4.00;;;;;;;14.39;100.00;99709.28;31307783;28;20057;-84
2023/04/25 04:10:37;;;;;;;7.03;4.53;;;;;;;14.44;100.00;99708.69;31381567;28;20052;-83
2023/04/25 04:25:40;;;;;;;8.23;3.90;;;;;;;14.63;100.00;99693.88;31369927;28;20057;-84
2023/04/25 04:40:45;;;;;;;6.07;3.77;;;;;;;14.94;100.00;99699.13;31339562;28;20056;-84
2023/04/25 04:55:46;;;;;;;16.87;3.67;;;;;;;15.18;100.00;99699.25;31312845;28;20056;-83
2023/04/25 05:10:49;;;;;;;7.33;4.10;;;;;;;15.79;100.00;99700.00;31393866;28;20049;-87
2023/04/25 05:25:51;;;;;;;14.57;3.90;;;;;;;16.41;100.00;99682.88;31351208;28;20049;-84
2023/04/25 05:40:53;;;;;;;9.37;5.33;;;;;;;16.95;100.00;99683.69;31336238;28;20045;-85
2023/04/25 05:55:55;;;;;;;9.17;4.30;;;;;;;17.88;100.00;99682.94;31339457;28;20055;-90
2023/04/25 06:10:57;;;;;;;7.30;3.50;;;;;;;18.63;100.00;99676.66;31386317;28;20092;-84
2023/04/25 06:25:59;;;;;;;6.07;3.57;;;;;;;19.51;100.00;99652.44;31346985;28;20144;-86
2023/04/25 06:41:02;;;;;;;4.80;2.85;;;;;;;19.90;100.00;99650.66;31382482;28;20141;-84
2023/04/25 06:56:04;;;;;;;6.93;3.15;;;;;;;20.45;100.00;99665.97;31313249;28;20443;-85
2023/04/25 07:11:06;;;;;;;14.77;3.53;;;;;;;21.82;100.00;99658.75;31310770;28;20041;-86
2023/04/25 07:26:08;;;;;;;4.53;2.97;;;;;;;21.79;100.00;99666.06;31343235;28;20048;-85
2023/04/25 07:41:10;;;;;;;8.02;3.63;;;;;;;20.40;100.00;99669.44;31341479;28;20087;-85
2023/04/25 07:56:12;;;;;;;7.18;3.42;;;;;;;19.68;100.00;99667.81;31293838;28;1394427;-84
2023/04/25 08:11:14;;;;;;;7.72;4.60;;;;;;;19.82;100.00;99655.16;31320501;28;20065;-85
2023/04/25 08:26:17;;;;;;;5.63;3.60;;;;;;;19.81;100.00;99645.38;31289145;28;20060;-85
2023/04/25 08:41:21;;;;;;;7.30;3.63;;;;;;;20.31;100.00;99625.56;31323743;28;20049;-83
2023/04/25 08:56:23;;;;;;;10.70;4.60;;;;;;;20.86;100.00;99627.69;31343728;28;20088;-84
2023/04/25 09:11:25;;;;;;;9.10;4.72;;;;;;;19.63;100.00;99630.00;31373402;28;20382;-82
2023/04/25 09:26:27;;;;;;;8.77;4.23;;;;;;;17.68;100.00;99628.00;31306627;28;20500;-84
2023/04/25 09:41:29;;;;;;;12.80;6.07;;;;;;;16.95;100.00;99623.38;31441750;28;20053;-83
2023/04/25 09:56:36;;;;;;;10.90;6.03;;;;;;;17.12;100.00;99610.69;31333717;28;20140;-82
2023/04/25 10:11:40;;;;;;;14.47;5.77;;;;;;;16.90;100.00;99610.31;31368656;28;20464;-81
2023/04/25 10:26:42;;;;;;;9.13;5.23;;;;;;;17.16;100.00;99605.75;31306439;28;20065;-81
2023/04/25 10:41:52;;;;;;;11.13;6.30;;;;;;;18.52;100.00;99618.03;31325955;28;20079;-81
2023/04/25 10:56:54;;;;;;;10.90;5.97;;;;;;;18.72;100.00;99624.25;31347756;28;20056;-83
2023/04/25 11:11:58;;;;;;;9.02;5.32;;;;;;;19.17;100.00;99613.63;31351205;28;20041;-78
2023/04/25 11:27:05;;;;;;;9.37;5.60;;;;;;;19.19;100.00;99610.41;31330395;28;20096;-79
2023/04/25 11:42:08;;;;;;;7.10;4.73;;;;;;;18.68;100.00;99601.72;31355600;28;20128;-83
2023/04/25 11:57:15;;;;;;;7.38;4.57;;;;;;;18.78;100.00;99587.81;31324247;28;20049;-79
2023/04/25 12:12:16;;;;;;;7.35;4.18;;;;;;;18.61;100.00;99577.44;31326911;28;20094;-79
2023/04/25 12:27:19;;;;;;;7.05;3.13;;;;;;;19.54;100.00;99560.63;31348664;28;20044;-79
2023/04/25 12:42:21;;;;;;;5.55;3.72;;;;;;;20.23;100.00;99550.13;31336349;28;20045;-78
2023/04/25 12:57:23;;;;;;;5.22;3.53;;;;;;;20.61;100.00;99535.66;31315379;28;20060;-78
2023/04/25 13:12:25;;;;;;;4.80;2.97;;;;;;;20.62;100.00;99526.13;31334432;28;20045;-80
2023/04/25 13:27:27;;;;;;;10.30;3.42;;;;;;;20.55;100.00;99515.59;31326637;28;20119;-82
2023/04/25 13:42:30;;;;;;;8.43;5.68;;;;;;;20.54;100.00;99516.88;31368152;28;20069;-78
2023/04/25 13:57:32;;;;;;;12.85;8.05;;;;;;;20.28;100.00;99513.56;31353931;28;20575;-83
2023/04/25 14:12:40;;;;;;;10.43;4.93;;;;;;;20.23;100.00;99514.28;31399032;28;20079;-83
2023/04/25 14:27:43;;;;;;;7.75;3.58;;;;;;;20.32;100.00;99503.00;31345785;28;20469;-81
2023/04/25 14:42:45;;;;;;;6.03;3.60;;;;;;;20.41;100.00;99489.78;31336510;28;20099;-83
2023/04/25 14:57:47;;;;;;;7.53;3.20;;;;;;;20.21;100.00;99478.22;31296150;28;20057;-82
2023/04/25 15:12:49;;;;;;;6.47;3.75;;;;;;;19.96;100.00;99472.41;31337983;28;20040;-77
2023/04/25 15:27:53;;;;;;;5.03;3.92;;;;;;;19.82;100.00;99459.63;31296100;28;20061;-78
2023/04/25 15:42:55;;;;;;;9.40;4.20;;;;;;;19.65;100.00;99454.03;31309290;28;20489;-78
2023/04/25 15:57:57;;;;;;;4.63;3.58;;;;;;;19.41;100.00;99457.19;31338345;28;20065;-82
2023/04/25 16:12:59;;;;;;;4.90;3.40;;;;;;;19.05;100.00;99464.25;31341396;28;20060;-83
2023/04/25 16:28:01;;;;;;;6.45;3.80;;;;;;;18.47;100.00;99462.81;31335921;28;20049;-81
2023/04/25 16:43:02;;;;;;;5.35;3.65;;;;;;;18.04;100.00;99481.91;31343360;28;20045;-84
2023/04/25 16:58:05;;;;;;;9.57;4.60;;;;;;;17.84;100.00;99476.47;31356962;28;20064;-77
2023/04/25 17:13:10;;;;;;;5.90;4.40;;;;;;;17.59;100.00;99501.84;31327254;28;20486;-75
2023/04/25 17:28:13;;;;;;;4.77;3.63;;;;;;;17.51;100.00;99509.72;31331872;28;20451;-75
2023/04/25 17:43:18;;;;;;;8.33;4.10;;;;;;;17.32;100.00;99520.22;31343487;28;20052;-78
2023/04/25 17:58:20;;;;;;;5.67;3.97;;;;;;;17.32;100.00;99525.69;31334552;28;20063;-79
2023/04/25 18:13:23;;;;;;;5.70;3.20;;;;;;;17.32;100.00;99544.91;31317317;28;20049;-81
2023/04/25 18:28:25;;;;;;;5.63;3.57;;;;;;;17.16;100.00;99553.66;31351663;28;20095;-81
2023/04/25 18:43:27;;;;;;;5.93;3.43;;;;;;;16.98;100.00;99553.88;31329693;28;20070;-80
2023/04/25 18:58:29;;;;;;;5.27;3.57;;;;;;;16.81;100.00;99547.34;31314879;28;20057;-80
2023/04/25 19:13:31;;;;;;;7.03;3.40;;;;;;;16.48;100.00;99542.81;31318925;28;20059;-79
2023/04/25 19:28:33;;;;;;;4.50;3.30;;;;;;;15.93;100.00;99532.34;31333091;28;20053;-79
2023/04/25 19:43:35;;;;;;;7.37;4.10;;;;;;;15.40;100.00;99528.72;31317294;28;20051;-78
2023/04/25 19:58:38;;;;;;;7.70;5.00;;;;;;;14.99;100.00;99539.25;31312729;28;20057;-84
2023/04/25 20:13:39;;;;;;;8.87;5.70;;;;;;;14.64;100.00;99558.78;31351402;28;20053;-84
2023/04/25 20:28:42;;;;;;;10.10;7.53;;;;;;;14.54;100.00;99560.03;31303486;28;20052;-86
2023/04/25 20:43:44;;;;;;;8.03;4.63;;;;;;;14.62;100.00;99574.13;31331510;28;20482;-82
2023/04/25 20:58:46;;;;;;;9.90;4.93;;;;;;;14.42;100.00;99580.03;31355684;28;20057;-84
2023/04/25 21:13:48;;;;;;;10.07;4.73;;;;;;;14.10;100.00;99591.56;31327916;28;20064;-83
2023/04/25 21:28:50;;;;;;;8.17;4.83;;;;;;;13.96;100.00;99598.38;31361534;28;20509;-84
2023/04/25 21:43:52;;;;;;;8.03;5.53;;;;;;;13.97;100.00;99617.00;31339964;28;20081;-83
2023/04/25 21:58:54;;;;;;;10.00;5.70;;;;;;;14.08;100.00;99618.56;31364405;28;20057;-77
2023/04/25 22:13:56;;;;;;;9.97;4.67;;;;;;;14.12;100.00;99619.19;31324451;28;20083;-76
2023/04/25 22:28:58;;;;;;;8.90;4.20;;;;;;;13.86;100.00;99622.16;31360134;28;20102;-76
2023/04/25 22:44:01;;;;;;;6.80;3.80;;;;;;;13.64;100.00;99626.97;31352609;28;20497;-77
2023/04/25 22:59:03;;;;;;;6.53;3.47;;;;;;;13.45;100.00;99617.97;31319043;28;20172;-77
2023/04/25 23:14:05;;;;;;;6.93;3.97;;;;;;;13.44;100.00;99629.31;31354733;28;20036;-79
2023/04/25 23:29:07;;;;;;;5.20;3.13;;;;;;;13.35;100.00;99632.75;31338978;28;20382;-77
2023/04/25 23:44:09;;;;;;;5.40;3.13;;;;;;;13.36;100.00;99628.81;31361296;28;20045;-77
2023/04/25 23:59:11;;;;;;;7.57;3.43;;;;;;;13.39;100.00;99632.63;31330828;28;20061;-78
